Time;durP1;ratioP1;P1;durP2;ratioP2;P2;SDS_P1;SDS_P2;PMS_P1;PMS_P2;Temp;Humidity;BMP_temperature;BMP_pressure;BME280_temperature;BME280_humidity;BME280_pressure;Samples;Min_cycle;Max_cycle;Signal;HPM_P1;HPM_P2
2022/03/05 00:01:08;;;;;;;48.10;15.37;;;0.60;22.00;;;;;;5039129;28;21050;-66
2022/03/05 00:03:35;;;;;;;47.73;13.80;;;0.60;22.00;;;;;;5043294;28;21100;-64
2022/03/05 00:06:03;;;;;;;51.07;13.73;;;0.60;22.00;;;;;;5045003;28;20462;-64
2022/03/05 00:08:30;;;;;;;51.20;13.77;;;0.50;21.90;;;;;;5044165;28;20457;-65
2022/03/05 00:10:57;;;;;;;52.50;14.40;;;0.50;22.40;;;;;;5044505;28;20464;-64
2022/03/05 00:13:24;;;;;;;54.97;14.77;;;0.50;22.50;;;;;;5043098;28;20887;-62
2022/03/05 00:15:51;;;;;;;51.03;16.00;;;0.50;22.60;;;;;;5043437;28;20466;-64
2022/03/05 00:18:18;;;;;;;53.60;14.63;;;0.40;22.40;;;;;;5040096;28;20549;-64
2022/03/05 00:20:46;;;;;;;51.77;15.03;;;0.40;22.70;;;;;;5042868;28;20497;-63
2022/03/05 00:23:16;;;;;;;50.37;14.13;;;0.40;23.10;;;;;;5041267;28;20513;-61
2022/03/05 00:25:43;;;;;;;52.87;15.00;;;0.40;23.00;;;;;;5044326;28;20462;-62
2022/03/05 00:28:11;;;;;;;50.67;14.47;;;0.40;23.40;;;;;;5042961;28;20462;-63
2022/03/05 00:30:38;;;;;;;52.63;16.00;;;0.40;24.10;;;;;;5043563;28;20454;-62
2022/03/05 00:33:04;;;;;;;51.17;14.43;;;0.30;23.80;;;;;;5047040;28;20492;-62
2022/03/05 00:35:32;;;;;;;52.17;15.73;;;0.30;24.40;;;;;;5049889;28;20462;-63
2022/03/05 00:37:59;;;;;;;55.40;15.53;;;0.20;24.10;;;;;;5041169;28;20465;-64
2022/03/05 00:40:28;;;;;;;55.30;18.10;;;0.20;24.80;;;;;;5044944;28;20470;-62
2022/03/05 00:42:54;;;;;;;56.50;18.03;;;0.20;24.60;;;;;;5038964;28;20481;-62
2022/03/05 00:45:21;;;;;;;58.23;16.70;;;0.20;24.60;;;;;;5050408;28;20457;-63
2022/03/05 00:47:48;;;;;;;55.30;17.60;;;0.50;25.20;;;;;;5047920;28;20496;-62
2022/03/05 00:50:15;;;;;;;59.07;17.67;;;0.20;25.80;;;;;;5044151;28;20465;-62
2022/03/05 00:52:41;;;;;;;54.80;16.10;;;0.10;25.50;;;;;;5044687;28;20489;-64
2022/03/05 00:55:09;;;;;;;56.57;15.90;;;0.10;25.90;;;;;;5043837;28;20465;-63
2022/03/05 00:57:37;;;;;;;57.83;15.60;;;0.10;25.80;;;;;;5056166;28;20661;-61
2022/03/05 01:00:06;;;;;;;54.57;14.80;;;0.10;25.60;;;;;;5045089;28;20461;-61
2022/03/05 01:02:33;;;;;;;56.37;16.37;;;0.10;25.70;;;;;;5044118;28;20465;-63
2022/03/05 01:04:59;;;;;;;59.77;18.17;;;0.00;25.70;;;;;;5042120;28;20466;-63
2022/03/05 01:07:26;;;;;;;59.63;17.77;;;0.00;26.10;;;;;;5047317;28;21132;-63
2022/03/05 01:09:53;;;;;;;53.73;16.97;;;0.00;26.50;;;;;;5044302;28;20459;-64
2022/03/05 01:12:21;;;;;;;59.27;18.27;;;0.00;26.60;;;;;;5043603;28;22548;-62
2022/03/05 01:14:49;;;;;;;54.87;16.00;;;0.00;26.70;;;;;;5042399;28;20476;-63
2022/03/05 01:17:16;;;;;;;58.33;16.73;;;-0.10;26.60;;;;;;5044867;28;20466;-64
2022/03/05 01:19:43;;;;;;;57.70;17.03;;;-0.10;27.00;;;;;;5043289;28;20554;-63
2022/03/05 01:22:10;;;;;;;55.60;16.40;;;-0.10;27.10;;;;;;5053705;28;20469;-61
2022/03/05 01:24:37;;;;;;;56.63;18.13;;;-0.20;27.00;;;;;;5038933;28;20466;-63
2022/03/05 01:27:04;;;;;;;57.27;16.83;;;-0.10;27.20;;;;;;5059236;28;20563;-63
2022/03/05 01:29:31;;;;;;;53.63;15.87;;;-0.20;27.50;;;;;;5047346;28;20462;-64
2022/03/05 01:31:59;;;;;;;54.07;16.13;;;-0.20;27.80;;;;;;5045934;28;20484;-63
2022/03/05 01:34:26;;;;;;;57.70;20.20;;;-0.20;27.70;;;;;;5034970;28;20467;-62
2022/03/05 01:36:53;;;;;;;58.97;15.90;;;-0.20;27.70;;;;;;5043835;28;20458;-63
2022/03/05 01:39:19;;;;;;;57.40;19.17;;;-0.20;28.10;;;;;;5035708;28;20473;-61
2022/03/05 01:41:48;;;;;;;55.70;16.50;;;-0.20;27.70;;;;;;5054168;28;20477;-63
2022/03/05 01:44:15;;;;;;;57.93;15.67;;;-0.30;28.20;;;;;;5045741;28;20543;-62
2022/03/05 01:46:41;;;;;;;64.10;18.13;;;-0.30;28.90;;;;;;5046467;28;21259;-64
2022/03/05 01:49:12;;;;;;;56.00;19.43;;;-0.30;28.60;;;;;;5046527;28;20974;-62
2022/03/05 01:51:39;;;;;;;58.87;17.73;;;-0.30;28.60;;;;;;5047826;28;20472;-62
2022/03/05 01:54:07;;;;;;;56.33;15.03;;;-0.40;28.90;;;;;;5047242;28;20841;-63
2022/03/05 01:56:35;;;;;;;55.97;16.00;;;-0.40;29.00;;;;;;5046203;28;20507;-63
2022/03/05 01:59:02;;;;;;;54.77;13.63;;;-0.40;29.30;;;;;;5050894;28;21041;-63
2022/03/05 02:01:30;;;;;;;57.33;16.77;;;-0.80;28.80;;;;;;5047461;28;20470;-62
2022/03/05 02:03:57;;;;;;;57.03;15.80;;;-0.40;28.90;;;;;;5045698;28;20453;-64
2022/03/05 02:06:25;;;;;;;58.20;16.07;;;-0.50;29.00;;;;;;5056135;28;20837;-66
2022/03/05 02:08:52;;;;;;;57.93;16.10;;;-0.40;28.70;;;;;;5053747;28;21041;-65
2022/03/05 02:11:19;;;;;;;55.37;14.97;;;-0.50;28.80;;;;;;5047557;28;20564;-65
2022/03/05 02:13:46;;;;;;;57.97;16.80;;;-0.50;28.70;;;;;;5044465;28;20490;-63
2022/03/05 02:16:13;;;;;;;53.50;14.50;;;-0.60;28.90;;;;;;5045845;28;20465;-66
2022/03/05 02:18:44;;;;;;;53.90;15.20;;;-0.60;28.80;;;;;;5047230;28;20475;-63
2022/03/05 02:21:12;;;;;;;58.13;16.40;;;-0.60;28.80;;;;;;5047307;28;20466;-65
2022/03/05 02:23:39;;;;;;;56.87;13.40;;;-0.60;28.80;;;;;;5049289;28;20482;-65
2022/03/05 02:26:06;;;;;;;57.23;15.97;;;-0.70;29.30;;;;;;5049499;28;20472;-66
2022/03/05 02:28:35;;;;;;;55.23;15.73;;;-0.70;29.40;;;;;;5050328;28;21019;-65
2022/03/05 02:31:03;;;;;;;53.37;13.57;;;-0.70;29.60;;;;;;5047717;28;20539;-64
2022/03/05 02:33:29;;;;;;;56.67;15.10;;;-0.70;29.50;;;;;;5045009;28;20474;-63
2022/03/05 02:35:56;;;;;;;54.10;14.70;;;-0.70;29.50;;;;;;5045081;28;20461;-66
2022/03/05 02:38:25;;;;;;;58.13;15.37;;;-0.70;30.30;;;;;;5042089;28;20454;-66
2022/03/05 02:40:53;;;;;;;55.33;14.17;;;-0.70;30.00;;;;;;5060215;28;20478;-66
2022/03/05 02:43:21;;;;;;;52.47;14.43;;;-0.80;29.90;;;;;;5044993;28;20851;-65
2022/03/05 02:45:48;;;;;;;54.80;17.20;;;-0.80;29.90;;;;;;5047714;28;20510;-65
2022/03/05 02:48:16;;;;;;;58.30;14.63;;;-0.80;30.20;;;;;;5047237;28;20473;-64
2022/03/05 02:50:45;;;;;;;52.50;15.27;;;-0.80;30.20;;;;;;5052880;28;20951;-63
2022/03/05 02:53:12;;;;;;;54.97;14.50;;;-0.80;30.00;;;;;;5040589;28;20530;-65
2022/03/05 02:55:41;;;;;;;52.87;14.97;;;-0.90;30.20;;;;;;5046408;28;20860;-63
2022/03/05 02:58:08;;;;;;;58.90;16.50;;;-0.90;30.30;;;;;;5052109;28;21102;-65
2022/03/05 03:00:36;;;;;;;54.70;15.80;;;-0.90;30.40;;;;;;5046794;28;20466;-65
2022/03/05 03:03:02;;;;;;;54.93;14.23;;;-0.90;30.30;;;;;;5046000;28;20633;-67
2022/03/05 03:05:29;;;;;;;51.17;14.17;;;-0.80;30.00;;;;;;5046830;28;20469;-64
2022/03/05 03:07:56;;;;;;;54.30;14.13;;;-1.00;30.10;;;;;;5045358;28;20468;-65
2022/03/05 03:10:23;;;;;;;55.87;14.70;;;-1.00;30.10;;;;;;5048422;28;20469;-66
2022/03/05 03:12:51;;;;;;;54.93;16.03;;;-1.10;30.10;;;;;;5041853;28;20604;-65
2022/03/05 03:15:18;;;;;;;56.77;15.37;;;-1.10;30.10;;;;;;5054982;28;20461;-64
2022/03/05 03:17:46;;;;;;;52.40;14.30;;;-1.10;30.10;;;;;;5047586;28;21034;-64
2022/03/05 03:20:15;;;;;;;57.73;15.70;;;-1.10;30.10;;;;;;5045884;28;20464;-65
2022/03/05 03:22:42;;;;;;;61.23;16.70;;;-1.10;30.60;;;;;;5054484;28;20958;-66
2022/03/05 03:25:10;;;;;;;57.77;14.80;;;-1.10;31.30;;;;;;5043034;28;20461;-64
2022/03/05 03:27:37;;;;;;;55.20;15.90;;;-1.10;31.20;;;;;;5051251;28;20454;-64
2022/03/05 03:30:07;;;;;;;59.70;14.43;;;-1.10;31.20;;;;;;5045683;28;20473;-63
2022/03/05 03:32:35;;;;;;;54.20;15.63;;;-1.10;31.10;;;;;;5042732;28;20475;-63
2022/03/05 03:35:02;;;;;;;55.00;14.33;;;-1.10;31.40;;;;;;5045725;28;20462;-64
2022/03/05 03:37:31;;;;;;;57.00;15.63;;;-1.10;31.30;;;;;;5048403;28;20497;-63
2022/03/05 03:39:59;;;;;;;57.60;16.00;;;-1.10;31.40;;;;;;5043052;28;20485;-65
2022/03/05 03:42:26;;;;;;;58.83;17.00;;;-1.10;31.40;;;;;;5050315;28;21023;-65
2022/03/05 03:44:53;;;;;;;54.73;13.93;;;-1.10;32.10;;;;;;5046839;28;20462;-65
2022/03/05 03:47:22;;;;;;;57.23;14.47;;;-1.10;31.80;;;;;;5047440;28;20832;-65
2022/03/05 03:49:49;;;;;;;60.27;17.30;;;-1.20;31.70;;;;;;5044734;28;21121;-65
2022/03/05 03:52:16;;;;;;;58.17;15.60;;;-1.20;31.60;;;;;;5041641;28;20486;-65
2022/03/05 03:54:44;;;;;;;60.07;18.30;;;-1.20;32.00;;;;;;5041000;28;20467;-64
2022/03/05 03:57:11;;;;;;;55.53;13.63;;;-1.20;32.10;;;;;;5043814;28;20981;-65
2022/03/05 03:59:37;;;;;;;58.13;16.87;;;-1.20;32.10;;;;;;5046146;28;20458;-65
2022/03/05 04:02:05;;;;;;;58.17;16.13;;;-1.30;32.40;;;;;;5045676;28;21295;-64
2022/03/05 04:04:33;;;;;;;57.33;14.03;;;-1.30;32.40;;;;;;5062100;23;20497;-60
2022/03/05 04:09:45;;;;;;;60.90;15.17;;;-1.30;32.40;;;;;;5039605;28;20458;-59
2022/03/05 04:12:11;;;;;;;52.67;13.50;;;-1.30;32.20;;;;;;5046546;28;20466;-59
2022/03/05 04:14:39;;;;;;;54.20;14.87;;;-1.30;32.10;;;;;;5046367;28;20501;-59
2022/03/05 04:17:06;;;;;;;52.70;13.70;;;-1.40;32.30;;;;;;5045805;28;20462;-59
2022/03/05 04:19:34;;;;;;;57.70;15.50;;;-1.40;32.30;;;;;;5049375;28;20462;-60
2022/03/05 04:22:01;;;;;;;54.10;15.60;;;-1.40;32.40;;;;;;5048056;28;20469;-61
2022/03/05 04:24:28;;;;;;;55.63;15.57;;;-1.40;32.40;;;;;;5044867;28;20478;-60
2022/03/05 04:26:55;;;;;;;58.77;15.07;;;-1.50;32.50;;;;;;5042986;28;20469;-60
2022/03/05 04:29:22;;;;;;;58.30;14.87;;;-1.40;32.40;;;;;;5047241;28;20469;-60
2022/03/05 04:31:48;;;;;;;58.07;15.97;;;-1.50;32.70;;;;;;5042147;28;20478;-61
2022/03/05 04:34:15;;;;;;;57.53;14.83;;;-1.50;32.70;;;;;;5047327;28;20504;-61
2022/03/05 04:36:43;;;;;;;61.03;15.60;;;-1.50;32.60;;;;;;5042427;28;20470;-61
2022/03/05 04:39:10;;;;;;;61.27;17.37;;;-1.50;32.90;;;;;;5037596;28;20545;-59
2022/03/05 04:41:37;;;;;;;63.27;19.27;;;-1.60;32.80;;;;;;5041657;28;20480;-61
2022/03/05 04:44:04;;;;;;;55.97;16.07;;;-1.60;32.50;;;;;;5035614;28;20489;-59
2022/03/05 04:46:31;;;;;;;55.70;16.30;;;-1.50;32.90;;;;;;5046160;28;20466;-61
2022/03/05 04:48:58;;;;;;;61.60;17.33;;;-1.60;33.00;;;;;;5037432;28;20460;-59
2022/03/05 04:51:24;;;;;;;56.93;14.97;;;-1.60;32.90;;;;;;5043019;28;20465;-61
2022/03/05 04:53:53;;;;;;;57.83;16.70;;;-2.00;32.90;;;;;;5045311;28;20496;-61
2022/03/05 04:56:19;;;;;;;60.67;16.97;;;-1.60;33.00;;;;;;5044463;28;20477;-59
2022/03/05 04:58:46;;;;;;;59.50;17.60;;;-1.60;33.50;;;;;;5043057;28;20467;-61
2022/03/05 05:01:13;;;;;;;58.30;17.33;;;-1.60;33.20;;;;;;5033593;28;20497;-60
2022/03/05 05:03:40;;;;;;;58.10;17.13;;;-1.60;33.50;;;;;;5049054;28;20490;-60
2022/03/05 05:06:07;;;;;;;60.23;16.90;;;-1.60;34.00;;;;;;5045125;28;20473;-60
2022/03/05 05:08:34;;;;;;;57.37;15.93;;;-1.60;34.20;;;;;;5039385;28;20455;-62
2022/03/05 05:11:02;;;;;;;62.77;17.37;;;-1.60;34.00;;;;;;5044802;28;20465;-61
2022/03/05 05:13:29;;;;;;;60.30;16.23;;;-1.60;33.80;;;;;;5042308;28;20490;-61
2022/03/05 05:15:56;;;;;;;60.40;17.90;;;-1.60;33.90;;;;;;5047445;28;20465;-60
2022/03/05 05:18:22;;;;;;;59.50;17.77;;;-1.60;33.80;;;;;;5053220;28;20458;-60
2022/03/05 05:20:49;;;;;;;64.77;18.70;;;-1.70;33.60;;;;;;5050760;28;20465;-61
2022/03/05 05:23:16;;;;;;;61.47;18.70;;;-1.70;33.50;;;;;;5052243;28;20569;-61
2022/03/05 05:25:43;;;;;;;62.03;16.63;;;-1.70;33.60;;;;;;5048745;28;20458;-61
2022/03/05 05:28:11;;;;;;;56.33;16.20;;;-1.70;33.50;;;;;;5053527;28;20461;-60
2022/03/05 05:30:48;;;;;;;57.33;18.07;;;-1.70;33.60;;;;;;5058772;28;20454;-63
2022/03/05 05:33:15;;;;;;;60.90;18.17;;;-1.70;33.80;;;;;;5046664;28;20576;-60
2022/03/05 05:35:41;;;;;;;56.53;17.67;;;-1.70;33.60;;;;;;5048825;28;20465;-60
2022/03/05 05:38:08;;;;;;;60.97;17.97;;;-1.80;33.60;;;;;;5046885;28;20462;-62
2022/03/05 05:40:35;;;;;;;60.77;18.00;;;-1.80;33.60;;;;;;5051914;28;20466;-59
2022/03/05 05:43:02;;;;;;;58.27;17.50;;;-1.80;33.90;;;;;;5051387;28;20473;-59
2022/03/05 05:45:30;;;;;;;58.70;17.17;;;-1.80;34.10;;;;;;5047331;28;20553;-59
2022/03/05 05:47:58;;;;;;;60.17;16.57;;;-1.80;34.40;;;;;;5050138;28;20468;-61
2022/03/05 05:50:25;;;;;;;65.00;18.50;;;-1.80;34.30;;;;;;5050647;28;20470;-58
2022/03/05 05:52:51;;;;;;;60.10;16.37;;;-1.80;34.20;;;;;;5051623;28;20466;-61
2022/03/05 05:55:18;;;;;;;62.47;16.80;;;-1.80;34.20;;;;;;5048513;28;20459;-61
2022/03/05 05:57:45;;;;;;;59.97;17.83;;;-1.80;34.40;;;;;;5050863;28;20470;-60
2022/03/05 06:00:12;;;;;;;62.97;16.43;;;-1.80;34.40;;;;;;5052399;28;20468;-59
2022/03/05 06:02:41;;;;;;;63.90;20.10;;;-1.80;34.40;;;;;;5051884;28;21189;-59
2022/03/05 06:05:08;;;;;;;58.10;17.47;;;-1.80;34.60;;;;;;5052646;28;20486;-61
2022/03/05 06:07:35;;;;;;;59.53;15.37;;;-1.70;34.80;;;;;;5049036;28;20458;-61
2022/03/05 06:10:01;;;;;;;60.03;16.17;;;-1.60;35.00;;;;;;5046634;28;20947;-60
2022/03/05 06:12:28;;;;;;;58.70;16.93;;;-1.50;35.10;;;;;;5055223;28;20454;-62
2022/03/05 06:14:55;;;;;;;60.80;17.87;;;-1.40;35.20;;;;;;5045733;28;20490;-63
2022/03/05 06:17:22;;;;;;;61.23;17.57;;;-1.30;35.10;;;;;;5051924;28;21037;-60
2022/03/05 06:19:50;;;;;;;60.77;18.83;;;-1.10;35.00;;;;;;5046120;28;20508;-59
2022/03/05 06:22:16;;;;;;;56.70;16.67;;;-0.80;34.60;;;;;;5051230;28;20473;-60
2022/03/05 06:24:43;;;;;;;61.17;18.90;;;-0.60;34.40;;;;;;5051583;28;20476;-60
2022/03/05 06:27:10;;;;;;;55.60;14.70;;;-0.40;33.70;;;;;;5045595;28;20501;-62
2022/03/05 06:29:37;;;;;;;60.40;18.63;;;-0.10;33.30;;;;;;5044290;28;20462;-60
2022/03/05 06:32:04;;;;;;;56.23;15.97;;;0.20;32.00;;;;;;5042600;28;20560;-59
2022/03/05 06:34:31;;;;;;;54.87;16.20;;;0.80;30.30;;;;;;5048331;28;20481;-60
2022/03/05 06:37:00;;;;;;;52.57;14.73;;;1.40;28.80;;;;;;5046645;28;20529;-62
2022/03/05 06:39:27;;;;;;;57.77;16.97;;;2.10;27.40;;;;;;5045837;28;20465;-60
2022/03/05 06:41:54;;;;;;;51.33;14.47;;;2.90;25.50;;;;;;5045435;28;21421;-59
2022/03/05 06:44:21;;;;;;;52.07;16.47;;;3.60;23.50;;;;;;5049780;28;20485;-60
2022/03/05 06:46:47;;;;;;;53.13;14.93;;;4.00;22.00;;;;;;5049174;28;20469;-59
2022/03/05 06:49:14;;;;;;;51.07;15.90;;;4.20;21.10;;;;;;5045712;28;20481;-60
2022/03/05 06:51:41;;;;;;;53.03;15.73;;;4.30;20.80;;;;;;5043828;28;20473;-62
2022/03/05 06:54:09;;;;;;;49.97;14.37;;;4.40;20.70;;;;;;5045404;28;20485;-60
2022/03/05 06:56:36;;;;;;;52.67;14.70;;;4.50;20.00;;;;;;5048489;28;20454;-60
2022/03/05 06:59:03;;;;;;;50.97;14.40;;;4.70;19.90;;;;;;5047937;28;20477;-59
2022/03/05 07:01:30;;;;;;;53.20;15.53;;;5.10;19.20;;;;;;5047453;28;20488;-61
2022/03/05 07:03:56;;;;;;;47.93;13.93;;;5.50;18.70;;;;;;5047728;28;20485;-60
2022/03/05 07:06:23;;;;;;;49.60;14.63;;;5.90;17.70;;;;;;5049248;28;20572;-59
2022/03/05 07:08:50;;;;;;;50.57;14.27;;;6.30;17.30;;;;;;5043810;28;20470;-60
2022/03/05 07:11:18;;;;;;;51.70;14.93;;;6.50;17.10;;;;;;5047823;28;20477;-60
2022/03/05 07:13:45;;;;;;;51.70;14.03;;;6.70;16.70;;;;;;5045307;28;20486;-61
2022/03/05 07:16:12;;;;;;;48.47;13.90;;;6.90;16.80;;;;;;5048871;28;20458;-60
2022/03/05 07:18:39;;;;;;;48.70;14.07;;;7.20;17.20;;;;;;5046234;28;20561;-60
2022/03/05 07:21:06;;;;;;;49.77;14.50;;;7.40;15.90;;;;;;5047593;28;20462;-60
2022/03/05 07:23:33;;;;;;;50.80;14.80;;;7.70;15.90;;;;;;5045548;28;20478;-61
2022/03/05 07:26:00;;;;;;;49.50;15.27;;;8.00;14.30;;;;;;5042306;28;20458;-60
2022/03/05 07:28:28;;;;;;;47.57;16.30;;;8.40;12.70;;;;;;5042788;28;20473;-61
2022/03/05 07:30:55;;;;;;;50.00;14.77;;;9.20;11.50;;;;;;5047579;28;20477;-61
2022/03/05 07:33:22;;;;;;;50.77;14.73;;;9.60;10.70;;;;;;5045149;28;21029;-62
2022/03/05 07:35:49;;;;;;;47.07;14.17;;;9.90;10.40;;;;;;5046831;28;21075;-60
2022/03/05 07:38:16;;;;;;;47.40;14.50;;;10.20;9.60;;;;;;5047338;28;20462;-61
2022/03/05 07:40:43;;;;;;;45.70;14.00;;;10.30;8.70;;;;;;5046088;28;20477;-60
2022/03/05 07:43:09;;;;;;;45.50;14.37;;;10.60;8.60;;;;;;5044656;28;20926;-60
2022/03/05 07:45:37;;;;;;;48.63;15.10;;;11.30;7.90;;;;;;5041439;28;20983;-64
2022/03/05 07:48:05;;;;;;;43.97;14.83;;;12.30;6.50;;;;;;5046770;28;20462;-63
2022/03/05 07:50:32;;;;;;;45.77;14.40;;;13.50;5.40;;;;;;5045860;28;20462;-66
2022/03/05 07:52:59;;;;;;;49.03;16.87;;;14.70;3.50;;;;;;5043085;28;20497;-65
2022/03/05 07:55:25;;;;;;;44.17;14.90;;;15.80;2.00;;;;;;5041191;28;20487;-62
2022/03/05 07:57:52;;;;;;;47.80;16.20;;;16.90;1.00;;;;;;5046285;28;20481;-64
2022/03/05 08:00:19;;;;;;;46.53;15.43;;;17.90;1.00;;;;;;5040956;28;20875;-65
2022/03/05 08:02:47;;;;;;;46.77;16.63;;;18.80;1.00;;;;;;5049029;28;20997;-65
2022/03/05 08:05:14;;;;;;;45.40;16.90;;;19.70;1.00;;;;;;5046799;28;20470;-66
2022/03/05 08:07:41;;;;;;;43.13;15.80;;;20.00;1.00;;;;;;5045062;28;20462;-67
2022/03/05 08:10:09;;;;;;;43.23;15.80;;;20.50;1.00;;;;;;5040957;28;20471;-62
2022/03/05 08:12:35;;;;;;;45.23;16.40;;;21.30;1.00;;;;;;5045168;28;20540;-62
2022/03/05 08:15:02;;;;;;;43.47;15.57;;;21.90;1.00;;;;;;5041511;28;20505;-61
2022/03/05 08:17:29;;;;;;;42.03;15.13;;;22.30;1.00;;;;;;5044891;28;20468;-60
2022/03/05 08:19:57;;;;;;;42.90;15.67;;;22.20;1.00;;;;;;5045474;28;20463;-64
2022/03/05 08:22:24;;;;;;;44.37;16.60;;;22.60;1.00;;;;;;5044988;28;21303;-63
2022/03/05 08:24:51;;;;;;;43.20;15.70;;;23.30;1.00;;;;;;5045476;28;20489;-64
2022/03/05 08:27:18;;;;;;;43.97;15.40;;;23.50;1.00;;;;;;5046447;28;20462;-64
2022/03/05 08:29:45;;;;;;;43.27;16.50;;;23.50;1.00;;;;;;5045851;28;20951;-64
2022/03/05 08:32:12;;;;;;;44.37;16.77;;;24.20;1.00;;;;;;5046491;28;20476;-63
2022/03/05 08:34:39;;;;;;;46.57;17.67;;;24.50;1.00;;;;;;5045091;28;21155;-62
2022/03/05 08:37:07;;;;;;;41.97;15.50;;;24.50;1.00;;;;;;5046014;28;20472;-62
2022/03/05 08:39:34;;;;;;;44.10;16.70;;;24.50;1.00;;;;;;5046057;28;20463;-62
2022/03/05 08:42:01;;;;;;;44.37;17.30;;;25.00;1.00;;;;;;5045755;28;20466;-63
2022/03/05 08:44:27;;;;;;;43.93;18.23;;;25.60;1.00;;;;;;5040690;28;20482;-62
2022/03/05 08:46:54;;;;;;;42.80;16.63;;;25.20;1.00;;;;;;5039223;28;20450;-62
2022/03/05 08:49:22;;;;;;;43.20;17.23;;;25.10;1.00;;;;;;5044048;28;20469;-63
2022/03/05 08:51:48;;;;;;;43.20;17.70;;;25.80;1.00;;;;;;5043294;28;21167;-62
2022/03/05 08:54:17;;;;;;;45.60;18.70;;;26.70;1.00;;;;;;5042068;28;20489;-62
2022/03/05 08:56:44;;;;;;;42.50;17.50;;;27.40;1.00;;;;;;5038985;28;20521;-63
2022/03/05 08:59:11;;;;;;;40.97;16.60;;;28.00;1.00;;;;;;5046434;28;20462;-62
2022/03/05 09:01:39;;;;;;;42.00;17.00;;;28.60;1.00;;;;;;5042847;28;20553;-63
2022/03/05 09:04:05;;;;;;;41.30;17.37;;;29.30;1.00;;;;;;5046981;28;20485;-62
2022/03/05 09:06:32;;;;;;;40.50;16.03;;;28.60;1.00;;;;;;5043362;28;20470;-62
2022/03/05 09:09:00;;;;;;;41.80;17.23;;;28.70;1.00;;;;;;5044758;28;20547;-61
2022/03/05 09:11:29;;;;;;;42.00;17.50;;;28.30;1.00;;;;;;5044289;28;20541;-63
2022/03/05 09:13:56;;;;;;;42.20;17.67;;;28.20;1.00;;;;;;5044519;28;20494;-65
2022/03/05 09:16:23;;;;;;;40.37;17.30;;;28.40;1.00;;;;;;5045266;28;20462;-63
2022/03/05 09:18:50;;;;;;;39.77;15.93;;;28.60;1.00;;;;;;5044330;28;20470;-62
2022/03/05 09:21:17;;;;;;;40.67;16.60;;;28.60;1.00;;;;;;5044000;28;20467;-62
2022/03/05 09:23:43;;;;;;;41.83;16.40;;;28.50;1.00;;;;;;5042877;28;20485;-62
2022/03/05 09:26:10;;;;;;;40.80;16.70;;;29.10;1.00;;;;;;5045907;28;20442;-62
2022/03/05 09:28:38;;;;;;;41.00;17.67;;;29.50;1.00;;;;;;5043389;28;20458;-62
2022/03/05 09:31:05;;;;;;;38.60;15.07;;;29.20;1.00;;;;;;5045593;28;20854;-61
2022/03/05 09:33:32;;;;;;;37.83;15.33;;;29.40;1.00;;;;;;5045251;28;20481;-62
2022/03/05 09:35:58;;;;;;;40.80;15.30;;;29.10;1.00;;;;;;5045303;28;20482;-60
2022/03/05 09:38:26;;;;;;;39.67;15.30;;;28.70;1.00;;;;;;5044009;28;20465;-62
2022/03/05 09:40:53;;;;;;;39.23;16.23;;;28.90;1.00;;;;;;5044890;28;20458;-62
2022/03/05 09:43:21;;;;;;;37.80;16.13;;;29.10;1.00;;;;;;5042222;28;20488;-62
2022/03/05 09:45:50;;;;;;;38.77;14.90;;;29.20;1.00;;;;;;5046639;28;20625;-63
2022/03/05 09:48:18;;;;;;;39.23;15.13;;;29.30;1.00;;;;;;5040005;28;20519;-64
2022/03/05 09:50:45;;;;;;;38.23;13.83;;;29.30;1.00;;;;;;5040790;28;20473;-67
2022/03/05 09:53:12;;;;;;;39.30;15.10;;;29.50;1.00;;;;;;5034407;28;20486;-66
2022/03/05 09:55:39;;;;;;;38.10;14.70;;;29.60;1.00;;;;;;5049339;28;20930;-65
2022/03/05 09:58:06;;;;;;;38.80;14.67;;;29.80;1.00;;;;;;5042978;28;20584;-63
2022/03/05 10:00:33;;;;;;;38.03;14.37;;;29.70;1.00;;;;;;5043268;28;20474;-71
2022/03/05 10:03:05;;;;;;;36.20;12.87;;;30.20;1.00;;;;;;5048466;28;20469;-66
2022/03/05 10:05:32;;;;;;;35.57;13.27;;;30.00;1.00;;;;;;5086151;22;20489;-68
2022/03/05 10:08:10;;;;;;;37.10;13.07;;;29.70;1.00;;;;;;5059251;28;20469;-69
2022/03/05 10:10:49;;;;;;;37.20;13.37;;;26.60;1.00;;;;;;5063751;28;20970;-69
2022/03/05 10:13:24;;;;;;;38.67;13.97;;;25.40;1.00;;;;;;5062778;28;21014;-68
2022/03/05 10:15:53;;;;;;;38.73;12.93;;;26.20;1.00;;;;;;5063772;28;20497;-69
2022/03/05 10:18:31;;;;;;;42.93;12.90;;;27.40;1.00;;;;;;5065400;28;20457;-67
2022/03/05 10:20:59;;;;;;;40.80;14.50;;;28.00;1.00;;;;;;5062350;28;20461;-66
2022/03/05 10:23:30;;;;;;;36.30;11.60;;;26.30;1.00;;;;;;5062984;28;20909;-62
2022/03/05 10:25:57;;;;;;;36.90;11.67;;;26.10;1.00;;;;;;5063926;28;20456;-66
2022/03/05 10:28:25;;;;;;;36.00;10.53;;;27.20;1.00;;;;;;5067573;28;20897;-64
2022/03/05 10:30:53;;;;;;;34.27;9.67;;;27.70;1.00;;;;;;5064667;28;20476;-65
2022/03/05 10:33:33;;;;;;;36.30;11.53;;;28.00;1.00;;;;;;5065340;28;21026;-70
2022/03/05 10:36:01;;;;;;;35.10;12.27;;;28.10;1.00;;;;;;5064058;28;20480;-65
2022/03/05 10:38:46;;;;;;;35.23;10.30;;;26.60;1.00;;;;;;5063727;28;20457;-70
2022/03/05 10:41:14;;;;;;;37.37;10.87;;;25.80;1.00;;;;;;5061697;28;20457;-68
2022/03/05 10:43:41;;;;;;;36.03;11.53;;;25.70;1.00;;;;;;5064893;28;20514;-68
2022/03/05 10:46:08;;;;;;;36.97;11.47;;;25.10;1.00;;;;;;5066387;28;20824;-65
2022/03/05 10:48:40;;;;;;;37.37;10.30;;;24.10;1.00;;;;;;5061324;28;20468;-62
2022/03/05 10:51:11;;;;;;;36.43;9.17;;;23.10;1.00;;;;;;5060794;28;20981;-61
2022/03/05 10:53:44;;;;;;;37.53;11.13;;;21.00;1.00;;;;;;5061670;28;20985;-63
2022/03/05 10:56:31;;;;;;;37.27;10.00;;;21.00;1.00;;;;;;5062349;28;20512;-63
2022/03/05 10:59:03;;;;;;;39.37;12.10;;;22.20;1.00;;;;;;5061850;28;20504;-60
2022/03/05 11:01:31;;;;;;;37.17;11.60;;;23.00;1.00;;;;;;5061774;28;20477;-64
2022/03/05 11:04:00;;;;;;;38.50;12.60;;;23.80;1.00;;;;;;5066298;28;20479;-62
2022/03/05 11:06:27;;;;;;;37.03;11.10;;;23.10;1.00;;;;;;5064957;28;20461;-63
2022/03/05 11:08:54;;;;;;;38.90;11.70;;;22.70;1.00;;;;;;5067016;28;21016;-63
2022/03/05 11:11:22;;;;;;;36.43;10.60;;;22.50;1.00;;;;;;5064226;28;20461;-63
2022/03/05 11:13:49;;;;;;;36.17;10.40;;;22.20;1.00;;;;;;5063839;28;20489;-62
2022/03/05 11:16:16;;;;;;;38.53;11.43;;;22.00;1.00;;;;;;5066035;28;20481;-66
2022/03/05 11:18:43;;;;;;;37.03;10.87;;;20.60;1.00;;;;;;5064356;28;20469;-63
2022/03/05 11:21:12;;;;;;;37.87;10.90;;;19.50;1.00;;;;;;5060401;28;20469;-64
2022/03/05 11:23:41;;;;;;;38.83;12.30;;;19.20;1.00;;;;;;5067379;28;20453;-63
2022/03/05 11:26:08;;;;;;;38.90;10.70;;;18.40;1.00;;;;;;5061089;28;20465;-68
2022/03/05 11:28:36;;;;;;;41.17;12.53;;;17.90;1.00;;;;;;5065060;28;20861;-65
2022/03/05 11:31:14;;;;;;;39.70;11.20;;;18.50;1.00;;;;;;5063025;28;20481;-65
2022/03/05 11:33:43;;;;;;;40.50;12.67;;;18.30;1.00;;;;;;5064806;28;21006;-65
2022/03/05 11:36:28;;;;;;;44.20;14.23;;;16.40;1.00;;;;;;5062682;28;20473;-62
2022/03/05 11:39:16;;;;;;;42.20;12.33;;;15.00;1.00;;;;;;5066979;28;20465;-62
2022/03/05 11:42:01;;;;;;;42.17;13.50;;;14.80;1.00;;;;;;5064401;28;20461;-62
2022/03/05 11:44:31;;;;;;;43.30;14.23;;;15.50;1.00;;;;;;5061250;28;21032;-64
2022/03/05 11:47:24;;;;;;;42.53;13.10;;;15.80;1.00;;;;;;5062884;28;20453;-62
2022/03/05 11:50:16;;;;;;;43.40;11.53;;;14.70;1.00;;;;;;5064842;28;20491;-62
2022/03/05 11:53:07;;;;;;;42.23;13.03;;;13.60;1.00;;;;;;5061928;28;20986;-63
2022/03/05 11:55:41;;;;;;;42.47;12.47;;;12.50;1.00;;;;;;5069040;28;20903;-61
2022/03/05 11:58:25;;;;;;;42.00;11.03;;;12.00;1.00;;;;;;5068592;28;20449;-61
2022/03/05 12:00:54;;;;;;;42.53;12.20;;;12.90;1.00;;;;;;5065049;28;20483;-61
2022/03/05 12:03:37;;;;;;;46.33;13.93;;;14.00;1.00;;;;;;5064159;28;20465;-62
2022/03/05 12:06:05;;;;;;;41.43;12.83;;;14.10;1.00;;;;;;5065432;28;20469;-63
2022/03/05 12:08:50;;;;;;;42.53;12.93;;;14.40;1.00;;;;;;5065234;28;20453;-64
2022/03/05 12:11:19;;;;;;;42.03;12.37;;;14.00;1.00;;;;;;5061083;28;20530;-64
2022/03/05 12:13:47;;;;;;;44.03;14.67;;;13.50;1.00;;;;;;5065254;28;20467;-62
2022/03/05 12:16:15;;;;;;;42.40;11.63;;;13.30;1.00;;;;;;5067121;28;20485;-62
2022/03/05 12:18:42;;;;;;;42.27;13.23;;;12.90;1.00;;;;;;5064611;28;20461;-61
2022/03/05 12:21:09;;;;;;;65.97;29.17;;;12.90;1.00;;;;;;5063662;28;20871;-62
2022/03/05 12:23:36;;;;;;;42.77;12.97;;;13.60;1.00;;;;;;5058444;28;20468;-63
2022/03/05 12:26:06;;;;;;;42.97;13.80;;;14.40;1.00;;;;;;5064147;28;20469;-61
2022/03/05 12:28:41;;;;;;;44.13;13.83;;;14.40;1.00;;;;;;5061102;28;20548;-62
2022/03/05 12:31:16;;;;;;;41.23;12.17;;;15.10;1.00;;;;;;5059593;28;20526;-66
2022/03/05 12:33:46;;;;;;;41.23;13.23;;;14.40;1.00;;;;;;5056317;28;20466;-65
2022/03/05 12:36:15;;;;;;;41.50;12.60;;;13.50;1.00;;;;;;5062545;28;20993;-65
2022/03/05 12:38:42;;;;;;;41.90;12.93;;;13.40;1.00;;;;;;5066199;28;20533;-72
2022/03/05 12:41:10;;;;;;;43.50;12.67;;;13.60;1.00;;;;;;5064616;28;20837;-70